createdAt,value
2018-02-13T00:00:46.326Z,0.00
2018-02-13T00:01:46.317Z,0.00
2018-02-13T00:02:46.312Z,0.00
2018-02-13T00:03:46.298Z,0.00
2018-02-13T00:04:46.284Z,0.00
2018-02-13T00:05:46.276Z,0.00
2018-02-13T00:06:46.281Z,0.00
2018-02-13T00:07:46.258Z,0.00
2018-02-13T00:08:46.285Z,0.00
2018-02-13T00:09:46.234Z,0.00
2018-02-13T00:10:46.237Z,0.00
2018-02-13T00:11:46.216Z,0.00
2018-02-13T00:12:46.206Z,0.00
2018-02-13T00:13:46.197Z,0.00
2018-02-13T00:14:46.193Z,0.00
2018-02-13T00:15:46.175Z,0.00
2018-02-13T00:16:46.169Z,0.00
2018-02-13T00:17:46.160Z,0.00
2018-02-13T00:18:46.168Z,0.00
2018-02-13T00:19:46.137Z,0.00
2018-02-13T00:20:46.130Z,0.00
2018-02-13T00:21:46.122Z,0.00
2018-02-13T00:22:46.108Z,0.00
2018-02-13T00:23:46.096Z,0.00
2018-02-13T00:24:46.090Z,0.00
2018-02-13T00:25:46.076Z,0.00
2018-02-13T00:26:46.067Z,0.00
2018-02-13T00:27:46.078Z,0.00
2018-02-13T00:28:46.044Z,0.00
2018-02-13T00:29:46.037Z,0.00
2018-02-13T00:30:46.032Z,0.00
2018-02-13T00:31:46.017Z,0.00
2018-02-13T00:32:46.035Z,0.00
2018-02-13T00:33:45.997Z,0.00
2018-02-13T00:34:45.993Z,0.00
2018-02-13T00:35:45.974Z,0.00
2018-02-13T00:36:45.967Z,0.00
2018-02-13T00:37:45.956Z,0.00
2018-02-13T00:38:45.948Z,0.00
2018-02-13T00:39:45.940Z,0.00
2018-02-13T00:40:45.928Z,0.00
2018-02-13T00:41:45.927Z,0.00
2018-02-13T00:42:45.909Z,0.00
2018-02-13T00:43:45.895Z,0.00
2018-02-13T00:44:45.918Z,0.00
2018-02-13T00:45:45.876Z,0.00
2018-02-13T00:46:45.866Z,0.00
2018-02-13T00:47:45.863Z,0.00
2018-02-13T00:48:45.845Z,0.00
2018-02-13T00:49:45.835Z,0.00
2018-02-13T00:50:45.826Z,0.00
2018-02-13T00:51:45.819Z,0.00
2018-02-13T00:52:45.809Z,0.00
2018-02-13T00:53:45.804Z,0.00
2018-02-13T00:54:45.789Z,0.00
2018-02-13T00:55:45.775Z,0.00
2018-02-13T00:56:45.769Z,0.00
2018-02-13T00:57:45.763Z,0.00
2018-02-13T00:58:45.749Z,0.00
2018-02-13T00:59:45.738Z,0.00
2018-02-13T01:00:45.726Z,0.00
2018-02-13T01:01:45.715Z,0.00
2018-02-13T01:02:45.710Z,0.00
2018-02-13T01:03:45.695Z,0.00
2018-02-13T01:04:45.696Z,0.00
2018-02-13T01:05:45.735Z,0.00
2018-02-13T01:06:45.663Z,0.00
2018-02-13T01:07:45.658Z,0.00
2018-02-13T01:08:45.645Z,0.00
2018-02-13T01:09:45.638Z,0.00
2018-02-13T01:10:45.628Z,0.00
2018-02-13T01:11:45.616Z,0.00
2018-02-13T01:12:45.609Z,0.00
2018-02-13T01:13:45.594Z,0.00
2018-02-13T01:14:45.584Z,0.00
2018-02-13T01:15:45.576Z,0.00
2018-02-13T01:16:45.574Z,0.00
2018-02-13T01:17:45.554Z,0.00
2018-02-13T01:18:45.543Z,0.00
2018-02-13T01:19:45.533Z,0.00
2018-02-13T01:20:45.522Z,0.00
2018-02-13T01:21:45.518Z,0.00
2018-02-13T01:22:45.504Z,0.00
2018-02-13T01:23:45.506Z,0.00
2018-02-13T01:24:45.484Z,0.00
2018-02-13T01:25:45.476Z,0.00
2018-02-13T01:26:45.464Z,0.00
2018-02-13T01:27:45.454Z,0.00
2018-02-13T01:28:45.446Z,0.00
2018-02-13T01:29:45.437Z,0.00
2018-02-13T01:30:45.423Z,0.00
2018-02-13T01:31:45.412Z,0.00
2018-02-13T01:32:45.405Z,0.00
2018-02-13T01:33:45.393Z,0.00
2018-02-13T01:34:45.382Z,0.00
2018-02-13T01:35:45.404Z,0.00
2018-02-13T01:36:45.363Z,0.00
2018-02-13T01:37:45.352Z,0.00
2018-02-13T01:38:45.346Z,0.00
2018-02-13T01:39:45.338Z,0.00
2018-02-13T01:40:45.325Z,0.00
2018-02-13T01:41:45.317Z,0.00
2018-02-13T01:42:45.305Z,0.00
2018-02-13T01:43:45.291Z,0.00
2018-02-13T01:44:45.302Z,0.00
2018-02-13T01:45:45.271Z,0.00
2018-02-13T01:46:45.271Z,0.00
2018-02-13T01:47:45.255Z,0.00
2018-02-13T01:48:45.261Z,0.00
2018-02-13T01:49:45.233Z,0.00
2018-02-13T01:50:45.223Z,0.00
2018-02-13T01:51:45.211Z,0.00
2018-02-13T01:52:45.204Z,0.00
2018-02-13T01:53:45.195Z,0.00
2018-02-13T01:54:45.186Z,0.00
2018-02-13T01:55:45.174Z,0.00
2018-02-13T01:56:45.163Z,0.00
2018-02-13T01:57:45.151Z,0.00
2018-02-13T01:58:45.141Z,0.00
2018-02-13T01:59:45.137Z,0.00
2018-02-13T02:00:45.125Z,0.00
2018-02-13T02:01:45.130Z,0.00
2018-02-13T02:02:45.102Z,0.00
2018-02-13T02:03:45.094Z,0.00
2018-02-13T02:04:45.081Z,0.00
2018-02-13T02:05:45.083Z,0.00
2018-02-13T02:06:45.066Z,0.00
2018-02-13T02:07:45.051Z,0.00
2018-02-13T02:08:45.045Z,0.00
2018-02-13T02:09:45.036Z,0.00
2018-02-13T02:10:45.022Z,0.00
2018-02-13T02:11:45.015Z,0.00
2018-02-13T02:12:45.003Z,0.00
2018-02-13T02:13:44.992Z,0.00
2018-02-13T02:14:44.986Z,0.00
2018-02-13T02:15:45.005Z,0.00
2018-02-13T02:16:44.961Z,0.00
2018-02-13T02:17:44.956Z,0.00
2018-02-13T02:18:44.946Z,0.00
2018-02-13T02:19:44.933Z,0.00
2018-02-13T02:20:44.922Z,0.00
2018-02-13T02:21:44.925Z,0.00
2018-02-13T02:22:44.907Z,0.00
2018-02-13T02:23:44.895Z,0.00
2018-02-13T02:24:44.886Z,0.00
2018-02-13T02:25:44.876Z,0.00
2018-02-13T02:26:44.881Z,0.00
2018-02-13T02:27:44.862Z,0.00
2018-02-13T02:28:44.847Z,0.00
2018-02-13T02:29:44.841Z,0.00
2018-02-13T02:30:44.855Z,0.00
2018-02-13T02:31:44.815Z,0.00
2018-02-13T02:32:44.807Z,0.00
2018-02-13T02:33:44.813Z,0.00
2018-02-13T02:34:44.786Z,0.00
2018-02-13T02:35:44.779Z,0.00
2018-02-13T02:36:44.768Z,0.00
2018-02-13T02:37:44.760Z,0.00
2018-02-13T02:38:44.748Z,0.00
2018-02-13T02:39:44.743Z,0.00
2018-02-13T02:40:44.729Z,0.00
2018-02-13T02:41:44.726Z,0.00
2018-02-13T02:42:44.709Z,0.00
2018-02-13T02:43:44.702Z,0.00
2018-02-13T02:44:44.690Z,0.00
2018-02-13T02:45:44.678Z,0.00
2018-02-13T02:46:44.670Z,0.00
2018-02-13T02:47:44.661Z,0.00
2018-02-13T02:48:44.651Z,0.00
2018-02-13T02:49:44.638Z,0.00
2018-02-13T02:50:44.631Z,0.00
2018-02-13T02:51:44.622Z,0.00
2018-02-13T02:52:44.616Z,0.00
2018-02-13T02:53:44.604Z,0.00
2018-02-13T02:54:44.590Z,0.00
2018-02-13T02:55:44.583Z,0.00
2018-02-13T02:56:44.573Z,0.00
2018-02-13T02:57:44.563Z,0.00
2018-02-13T02:58:44.550Z,0.00
2018-02-13T02:59:44.540Z,0.00
2018-02-13T03:00:44.537Z,0.00
2018-02-13T03:01:44.534Z,0.00
2018-02-13T03:02:44.513Z,0.00
2018-02-13T03:03:44.506Z,0.00
2018-02-13T03:04:44.497Z,0.00
2018-02-13T03:05:44.483Z,0.00
2018-02-13T03:06:44.471Z,0.00
2018-02-13T03:07:44.465Z,0.00
2018-02-13T03:08:44.459Z,0.00
2018-02-13T03:09:44.446Z,0.00
2018-02-13T03:10:44.433Z,0.00
2018-02-13T03:11:44.424Z,0.00
2018-02-13T03:12:44.416Z,0.00
2018-02-13T03:13:44.409Z,0.00
2018-02-13T03:14:44.418Z,0.00
2018-02-13T03:15:44.409Z,0.00
2018-02-13T03:16:44.376Z,0.00
2018-02-13T03:17:44.366Z,0.00
2018-02-13T03:18:44.357Z,0.00
2018-02-13T03:19:44.346Z,0.00
2018-02-13T03:20:44.336Z,0.00
2018-02-13T03:21:44.357Z,0.00
2018-02-13T03:22:44.323Z,0.00
2018-02-13T03:23:44.307Z,0.00
2018-02-13T03:24:44.301Z,0.00
2018-02-13T03:25:44.290Z,0.00
2018-02-13T03:26:44.280Z,0.00
2018-02-13T03:27:44.304Z,0.00
2018-02-13T03:28:44.262Z,0.00
2018-02-13T03:29:44.263Z,0.00
2018-02-13T03:30:44.240Z,0.00
2018-02-13T03:31:44.285Z,0.00
2018-02-13T03:32:44.254Z,0.00
2018-02-13T03:33:44.210Z,0.00
2018-02-13T03:34:44.212Z,0.00
2018-02-13T03:35:44.193Z,0.00
2018-02-13T03:36:44.177Z,0.00
2018-02-13T03:37:45.912Z,0.00
2018-02-13T03:38:44.156Z,0.00
2018-02-13T03:39:44.158Z,0.00
2018-02-13T03:40:44.162Z,0.00
2018-02-13T03:41:44.130Z,0.00
2018-02-13T03:42:44.118Z,0.00
2018-02-13T03:43:44.107Z,0.00
2018-02-13T03:44:44.101Z,0.00
2018-02-13T03:45:44.132Z,0.00
2018-02-13T03:46:44.106Z,0.00
2018-02-13T03:47:45.913Z,0.00
2018-02-13T03:48:44.059Z,0.00
2018-02-13T03:49:44.044Z,0.00
2018-02-13T03:50:44.040Z,0.00
2018-02-13T03:51:44.026Z,0.00
2018-02-13T03:52:44.019Z,0.00
2018-02-13T03:53:44.005Z,0.00
2018-02-13T03:54:43.995Z,0.00
2018-02-13T03:55:43.987Z,0.00
2018-02-13T03:56:45.916Z,0.00
2018-02-13T03:57:44.012Z,0.00
2018-02-13T03:58:43.954Z,0.00
2018-02-13T03:59:43.942Z,0.00
2018-02-13T04:00:43.933Z,0.00
2018-02-13T04:01:43.928Z,0.00
2018-02-13T04:02:43.912Z,0.00
2018-02-13T04:03:43.909Z,0.00
2018-02-13T04:04:43.890Z,0.00
2018-02-13T04:05:43.884Z,0.00
2018-02-13T04:06:43.872Z,0.00
2018-02-13T04:07:43.862Z,0.00
2018-02-13T04:08:43.852Z,0.00
2018-02-13T04:09:43.843Z,0.00
2018-02-13T04:10:43.830Z,0.00
2018-02-13T04:11:43.823Z,0.00
2018-02-13T04:12:43.812Z,0.00
2018-02-13T04:13:43.801Z,0.00
2018-02-13T04:14:43.789Z,0.00
2018-02-13T04:15:43.780Z,0.00
2018-02-13T04:16:43.778Z,0.00
2018-02-13T04:17:43.756Z,0.00
2018-02-13T04:18:43.749Z,0.00
2018-02-13T04:19:43.758Z,0.00
2018-02-13T04:20:43.732Z,0.00
2018-02-13T04:21:43.722Z,0.00
2018-02-13T04:22:43.712Z,0.00
2018-02-13T04:23:43.699Z,0.00
2018-02-13T04:24:43.691Z,0.00
2018-02-13T04:25:43.676Z,0.00
2018-02-13T04:26:43.665Z,0.00
2018-02-13T04:27:43.661Z,0.00
2018-02-13T04:28:43.649Z,0.00
2018-02-13T04:29:43.641Z,0.00
2018-02-13T04:30:43.628Z,0.00
2018-02-13T04:31:43.618Z,0.00
2018-02-13T04:32:43.633Z,0.00
2018-02-13T04:33:43.595Z,0.00
2018-02-13T04:34:43.580Z,0.00
2018-02-13T04:35:43.575Z,0.00
2018-02-13T04:36:43.564Z,0.00
2018-02-13T04:37:43.556Z,0.00
2018-02-13T04:38:43.540Z,0.00
2018-02-13T04:39:43.534Z,0.00
2018-02-13T04:40:43.523Z,0.00
2018-02-13T04:41:43.509Z,0.00
2018-02-13T04:42:43.498Z,0.00
2018-02-13T04:43:43.492Z,0.00
2018-02-13T04:44:43.480Z,0.00
2018-02-13T04:45:43.468Z,0.00
2018-02-13T04:46:45.413Z,0.00
2018-02-13T04:47:43.453Z,0.00
2018-02-13T04:48:43.435Z,0.00
2018-02-13T04:49:43.438Z,0.00
2018-02-13T04:50:43.455Z,0.00
2018-02-13T04:51:52.209Z,0.00
2018-02-13T04:53:37.901Z,0.00
2018-02-13T04:54:37.828Z,0.00
2018-02-13T04:56:32.248Z,0.00
2018-02-13T04:57:32.168Z,0.00
2018-02-13T04:59:26.577Z,0.00
2018-02-13T05:00:26.547Z,0.00
2018-02-13T05:02:20.979Z,0.00
2018-02-13T05:03:20.967Z,0.00
2018-02-13T05:05:15.121Z,0.00
2018-02-13T05:06:15.185Z,0.00
2018-02-13T05:08:10.533Z,0.00
2018-02-13T05:09:10.640Z,0.00
2018-02-13T05:11:04.864Z,0.00
2018-02-13T05:12:05.191Z,0.00
2018-02-13T05:13:59.227Z,0.00
2018-02-13T05:14:59.209Z,0.00
2018-02-13T05:16:53.578Z,0.00
2018-02-13T05:17:53.625Z,0.00
2018-02-13T05:18:53.584Z,0.00
2018-02-13T05:19:54.103Z,0.00
2018-02-13T05:20:53.421Z,0.00
2018-02-13T05:21:53.379Z,0.00
2018-02-13T05:22:53.373Z,0.00
2018-02-13T05:23:53.366Z,0.00
2018-02-13T05:24:53.353Z,0.00
2018-02-13T05:25:53.339Z,0.00
2018-02-13T05:26:54.018Z,0.00
2018-02-13T05:27:53.320Z,0.00
2018-02-13T05:28:53.308Z,0.00
2018-02-13T05:29:54.008Z,0.00
2018-02-13T05:30:53.284Z,0.00
2018-02-13T05:31:53.275Z,0.00
2018-02-13T05:32:53.265Z,0.00
2018-02-13T05:33:53.257Z,0.00
2018-02-13T05:34:53.241Z,0.00
2018-02-13T05:35:53.232Z,0.00
2018-02-13T05:36:53.229Z,0.00
2018-02-13T05:37:53.206Z,0.00
2018-02-13T05:38:53.197Z,0.00
2018-02-13T05:39:53.194Z,0.00
2018-02-13T05:40:53.180Z,0.00
2018-02-13T05:41:53.174Z,0.00
2018-02-13T05:42:53.154Z,0.00
2018-02-13T05:43:53.141Z,0.00
2018-02-13T05:44:53.131Z,0.00
2018-02-13T05:45:53.136Z,0.00
2018-02-13T05:46:53.117Z,0.00
2018-02-13T05:47:52.133Z,0.00
2018-02-13T05:48:52.065Z,0.00
2018-02-13T05:50:46.782Z,0.00
2018-02-13T05:51:46.755Z,0.00
2018-02-13T05:53:40.976Z,0.00
2018-02-13T05:54:40.987Z,0.00
2018-02-13T05:55:40.791Z,0.00
2018-02-13T05:56:40.756Z,0.00
2018-02-13T05:57:40.718Z,0.00
2018-02-13T05:58:40.710Z,0.00
2018-02-13T05:59:40.691Z,4.00
2018-02-13T06:00:40.697Z,4.00
2018-02-13T06:01:40.679Z,0.00
2018-02-13T06:02:40.662Z,4.00
2018-02-13T06:03:40.655Z,4.00
2018-02-13T06:04:40.638Z,4.00
2018-02-13T06:05:40.630Z,4.00
2018-02-13T06:06:40.657Z,4.00
2018-02-13T06:07:40.637Z,4.00
2018-02-13T06:08:40.600Z,8.00
2018-02-13T06:09:40.589Z,8.00
2018-02-13T06:10:40.575Z,12.00
2018-02-13T06:11:40.560Z,12.00
2018-02-13T06:12:40.552Z,12.00
2018-02-13T06:13:40.541Z,16.00
2018-02-13T06:14:40.529Z,20.00
2018-02-13T06:15:40.513Z,20.00
2018-02-13T06:16:40.527Z,24.00
2018-02-13T06:17:40.495Z,28.00
2018-02-13T06:18:40.482Z,36.00
2018-02-13T06:19:40.500Z,40.00
2018-02-13T06:20:40.480Z,44.00
2018-02-13T06:21:40.455Z,52.00
2018-02-13T06:22:40.433Z,60.00
2018-02-13T06:23:40.429Z,68.00
2018-02-13T06:24:40.412Z,76.00
2018-02-13T06:25:40.406Z,84.00
2018-02-13T06:26:40.392Z,96.00
2018-02-13T06:27:40.392Z,108.00
2018-02-13T06:28:40.366Z,120.00
2018-02-13T06:29:40.357Z,132.00
2018-02-13T06:30:40.342Z,144.00
2018-02-13T06:31:40.336Z,160.00
2018-02-13T06:32:40.326Z,176.00
2018-02-13T06:33:40.316Z,188.00
2018-02-13T06:34:40.313Z,208.00
2018-02-13T06:35:40.292Z,224.00
2018-02-13T06:36:40.314Z,240.00
2018-02-13T06:37:40.269Z,264.00
2018-02-13T06:38:40.257Z,284.00
2018-02-13T06:39:40.245Z,308.00
2018-02-13T06:40:40.247Z,328.00
2018-02-13T06:41:40.222Z,352.00
2018-02-13T06:42:40.235Z,376.00
2018-02-13T06:43:40.201Z,408.00
2018-02-13T06:44:40.211Z,436.00
2018-02-13T06:45:40.178Z,464.00
2018-02-13T06:46:40.167Z,496.00
2018-02-13T06:47:40.157Z,528.00
2018-02-13T06:48:40.152Z,556.00
2018-02-13T06:49:40.134Z,592.00
2018-02-13T06:50:40.118Z,628.00
2018-02-13T06:51:40.111Z,660.00
2018-02-13T06:52:40.101Z,704.00
2018-02-13T06:53:40.085Z,740.00
2018-02-13T06:54:40.074Z,776.00
2018-02-13T06:55:40.064Z,820.00
2018-02-13T06:56:40.060Z,860.00
2018-02-13T06:57:40.046Z,904.00
2018-02-13T06:58:40.031Z,956.00
2018-02-13T06:59:40.016Z,1060.00
2018-02-13T07:00:40.012Z,1268.00
2018-02-13T07:01:39.996Z,1584.00
2018-02-13T07:02:39.988Z,1816.00
2018-02-13T07:03:39.979Z,1772.00
2018-02-13T07:04:39.965Z,1780.00
2018-02-13T07:05:39.988Z,1856.00
2018-02-13T07:06:39.941Z,2632.00
2018-02-13T07:07:39.967Z,3188.00
2018-02-13T07:08:39.925Z,3164.00
2018-02-13T07:09:39.911Z,3900.00
2018-02-13T07:10:39.896Z,4240.00
2018-02-13T07:11:39.889Z,4664.00
2018-02-13T07:12:39.881Z,6892.00
2018-02-13T07:13:39.868Z,9184.00
2018-02-13T07:14:39.858Z,9824.00
2018-02-13T07:15:39.845Z,9568.00
2018-02-13T07:16:39.854Z,9664.00
2018-02-13T07:17:39.826Z,9248.00
2018-02-13T07:18:39.818Z,7668.00
2018-02-13T07:19:39.814Z,8404.00
2018-02-13T07:22:37.657Z,10688.00
2018-02-13T07:23:38.259Z,9632.00
2018-02-13T07:25:32.849Z,8916.00
2018-02-13T07:26:32.727Z,5812.00
2018-02-13T07:27:32.669Z,2660.00
2018-02-13T07:28:32.645Z,2424.00
2018-02-13T07:29:32.663Z,2472.00
2018-02-13T07:30:32.541Z,2508.00
2018-02-13T07:31:32.548Z,2536.00
2018-02-13T07:32:32.521Z,2552.00
2018-02-13T07:33:32.519Z,2564.00
2018-02-13T07:34:32.511Z,2576.00
2018-02-13T07:35:32.505Z,2580.00
2018-02-13T07:36:32.506Z,2600.00
2018-02-13T07:37:32.491Z,2620.00
2018-02-13T07:38:32.730Z,2640.00
2018-02-13T07:39:32.477Z,2640.00
2018-02-13T07:42:04.539Z,2680.00
2018-02-13T07:43:00.561Z,2696.00
2018-02-13T07:44:01.419Z,2724.00
2018-02-13T07:45:00.419Z,2756.00
2018-02-13T07:46:00.402Z,2800.00
2018-02-13T07:47:00.304Z,2832.00
2018-02-13T07:48:00.239Z,2860.00
2018-02-13T07:49:00.386Z,2880.00
2018-02-13T07:50:00.217Z,2896.00
2018-02-13T07:51:01.867Z,2900.00
2018-02-13T07:52:00.281Z,2908.00
2018-02-13T07:53:01.280Z,2924.00
2018-02-13T07:54:01.827Z,2940.00
2018-02-13T07:55:00.191Z,2952.00
2018-02-13T07:56:00.252Z,2972.00
2018-02-13T07:57:01.880Z,3004.00
2018-02-13T07:58:01.753Z,3044.00
2018-02-13T07:59:00.190Z,3068.00
2018-02-13T08:00:00.193Z,3084.00
2018-02-13T08:01:00.154Z,3116.00
2018-02-13T08:02:00.139Z,3132.00
2018-02-13T08:03:00.204Z,3160.00
2018-02-13T08:04:00.138Z,3152.00
2018-02-13T08:05:01.756Z,3180.00
2018-02-13T08:06:01.778Z,3208.00
2018-02-13T08:07:01.815Z,3220.00
2018-02-13T08:08:00.058Z,3232.00
2018-02-13T08:09:01.841Z,3260.00
2018-02-13T08:10:01.781Z,3304.00
2018-02-13T08:11:00.133Z,3340.00
2018-02-13T08:12:01.852Z,3364.00
2018-02-13T08:13:00.057Z,3400.00
2018-02-13T08:14:00.009Z,3440.00
2018-02-13T08:15:08.877Z,3468.00
2018-02-13T08:16:54.669Z,3520.00
2018-02-13T08:17:54.384Z,3564.00
2018-02-13T08:19:48.797Z,3636.00
2018-02-13T08:20:48.751Z,3680.00
2018-02-13T08:22:43.158Z,3784.00
2018-02-13T08:23:43.137Z,3840.00
2018-02-13T08:25:38.509Z,4100.00
2018-02-13T08:26:38.849Z,8056.00
2018-02-13T08:28:32.994Z,23872.00
2018-02-13T08:29:32.984Z,27168.00
2018-02-13T08:31:31.017Z,14044.00
2018-02-13T08:32:29.595Z,15456.00
2018-02-13T08:33:28.909Z,10608.00
2018-02-13T08:34:27.147Z,11620.00
2018-02-13T08:35:27.151Z,18368.00
2018-02-13T08:36:27.084Z,14368.00
2018-02-13T08:37:27.016Z,12664.00
2018-02-13T08:38:27.012Z,18720.00
2018-02-13T08:39:27.001Z,20608.00
2018-02-13T08:40:27.008Z,18464.00
2018-02-13T08:41:27.012Z,18752.00
2018-02-13T08:42:27.010Z,24736.00
2018-02-13T08:43:26.981Z,27648.00
2018-02-13T08:44:26.978Z,28160.00
2018-02-13T08:45:26.973Z,21696.00
2018-02-13T08:46:26.967Z,19648.00
2018-02-13T08:47:26.985Z,22432.00
2018-02-13T08:48:26.966Z,17440.00
2018-02-13T08:49:26.970Z,17952.00
2018-02-13T08:50:26.965Z,18336.00
2018-02-13T08:51:26.959Z,18560.00
2018-02-13T08:52:26.998Z,22624.00
2018-02-13T08:53:26.955Z,23072.00
2018-02-13T08:54:26.951Z,26016.00
2018-02-13T08:55:26.950Z,23456.00
2018-02-13T08:56:26.983Z,19424.00
2018-02-13T08:57:26.947Z,20416.00
2018-02-13T08:58:26.971Z,19552.00
2018-02-13T08:59:26.949Z,24608.00
2018-02-13T09:00:26.950Z,27488.00
2018-02-13T09:01:26.956Z,27776.00
2018-02-13T09:02:26.949Z,27392.00
2018-02-13T09:03:26.952Z,27104.00
2018-02-13T09:04:26.955Z,25376.00
2018-02-13T09:05:26.953Z,22624.00
2018-02-13T09:06:26.954Z,24288.00
2018-02-13T09:07:26.956Z,25088.00
2018-02-13T09:08:26.960Z,24576.00
2018-02-13T09:09:26.961Z,20160.00
2018-02-13T09:10:27.004Z,18976.00
2018-02-13T09:11:26.965Z,22720.00
2018-02-13T09:12:26.969Z,23392.00
2018-02-13T09:13:26.977Z,23168.00
2018-02-13T09:14:26.996Z,23360.00
2018-02-13T09:15:28.608Z,22848.00
2018-02-13T09:16:26.995Z,23392.00
2018-02-13T09:17:27.052Z,25440.00
2018-02-13T09:18:27.001Z,34976.00
2018-02-13T09:22:34.069Z,82240.00
2018-02-13T09:23:35.467Z,79296.00
2018-02-13T09:24:33.822Z,77472.00
2018-02-13T09:25:35.363Z,77088.00
2018-02-13T09:26:34.859Z,76256.00
2018-02-13T09:27:33.815Z,76896.00
2018-02-13T09:28:33.818Z,77568.00
2018-02-13T09:29:33.879Z,76352.00
2018-02-13T09:30:33.884Z,76704.00
2018-02-13T09:31:33.794Z,77760.00
2018-02-13T09:32:33.913Z,78080.00
2018-02-13T09:33:33.802Z,78848.00
2018-02-13T09:34:33.814Z,76608.00
2018-02-13T09:35:33.816Z,78272.00
2018-02-13T09:36:33.821Z,78176.00
2018-02-13T09:37:33.856Z,78912.00
2018-02-13T09:38:33.833Z,79296.00
2018-02-13T09:39:33.841Z,80160.00
2018-02-13T09:40:33.905Z,82944.00
2018-02-13T09:41:33.854Z,82336.00
2018-02-13T09:42:33.858Z,82880.00
2018-02-13T09:43:33.866Z,82048.00
2018-02-13T09:44:33.873Z,80640.00
2018-02-13T09:45:33.883Z,80448.00
2018-02-13T09:46:33.882Z,80224.00
2018-02-13T09:47:33.895Z,82240.00
2018-02-13T09:48:33.909Z,82720.00
2018-02-13T09:49:33.906Z,84800.00
2018-02-13T09:50:33.909Z,84672.00
2018-02-13T09:51:33.922Z,85184.00
2018-02-13T09:52:34.251Z,86144.00
2018-02-13T09:53:33.942Z,87552.00
2018-02-13T09:54:33.940Z,87840.00
2018-02-13T09:55:33.956Z,87808.00
2018-02-13T09:56:33.965Z,89600.00
2018-02-13T09:57:33.964Z,88512.00
2018-02-13T09:58:35.834Z,87488.00
2018-02-13T09:59:33.975Z,86048.00
2018-02-13T10:00:33.982Z,84640.00
2018-02-13T10:01:33.988Z,87424.00
2018-02-13T10:02:33.996Z,87136.00
2018-02-13T10:03:34.003Z,88416.00
2018-02-13T10:04:34.011Z,89248.00
2018-02-13T10:05:34.023Z,90208.00
2018-02-13T10:06:34.027Z,89056.00
2018-02-13T10:07:34.035Z,90624.00
2018-02-13T10:08:34.075Z,92544.00
2018-02-13T10:09:34.050Z,90816.00
2018-02-13T10:10:34.058Z,93056.00
2018-02-13T10:11:34.067Z,90912.00
2018-02-13T10:12:34.076Z,89984.00
2018-02-13T10:13:34.084Z,91104.00
2018-02-13T10:14:34.091Z,89856.00
2018-02-13T10:15:34.101Z,91104.00
2018-02-13T10:16:34.111Z,88256.00
2018-02-13T10:17:34.117Z,89728.00
2018-02-13T10:18:34.125Z,88768.00
2018-02-13T10:19:34.135Z,89408.00
2018-02-13T10:20:34.144Z,88896.00
2018-02-13T10:21:34.152Z,90976.00
2018-02-13T10:22:34.160Z,94080.00
2018-02-13T10:23:34.169Z,93600.00
2018-02-13T10:24:34.181Z,92672.00
2018-02-13T10:25:34.187Z,93152.00
2018-02-13T10:26:34.196Z,90304.00
2018-02-13T10:27:34.216Z,92384.00
2018-02-13T10:28:34.215Z,91072.00
2018-02-13T10:29:34.225Z,89856.00
2018-02-13T10:30:34.239Z,91008.00
2018-02-13T10:31:34.244Z,91424.00
2018-02-13T10:32:34.254Z,90016.00
2018-02-13T10:33:34.263Z,92512.00
2018-02-13T10:34:34.275Z,89536.00
2018-02-13T10:35:34.281Z,89664.00
2018-02-13T10:36:34.292Z,89952.00
2018-02-13T10:37:34.300Z,88704.00
2018-02-13T10:38:34.336Z,89504.00
2018-02-13T10:39:34.319Z,88160.00
2018-02-13T10:40:34.333Z,91616.00
2018-02-13T10:41:34.338Z,89504.00
2018-02-13T10:42:34.354Z,91136.00
2018-02-13T10:43:34.356Z,90144.00
2018-02-13T10:44:34.365Z,90080.00
2018-02-13T10:45:34.376Z,89760.00
2018-02-13T10:46:34.384Z,88832.00
2018-02-13T10:47:34.392Z,89728.00
2018-02-13T10:48:34.404Z,49376.00
2018-02-13T10:49:34.410Z,11120.00
2018-02-13T10:50:34.415Z,6956.00
2018-02-13T10:51:34.423Z,6448.00
2018-02-13T10:52:34.432Z,6172.00
2018-02-13T10:53:34.445Z,6064.00
2018-02-13T10:54:34.439Z,5980.00
2018-02-13T10:55:34.464Z,5964.00
2018-02-13T10:56:34.455Z,5940.00
2018-02-13T10:57:34.461Z,5908.00
2018-02-13T10:58:34.460Z,5840.00
2018-02-13T10:59:34.462Z,5836.00
2018-02-13T11:00:34.472Z,5824.00
2018-02-13T11:01:34.471Z,5836.00
2018-02-13T11:02:34.474Z,5764.00
2018-02-13T11:03:34.475Z,5704.00
2018-02-13T11:04:34.528Z,5696.00
2018-02-13T11:05:34.480Z,5728.00
2018-02-13T11:06:34.483Z,5696.00
2018-02-13T11:07:34.478Z,5640.00
2018-02-13T11:08:34.485Z,5632.00
2018-02-13T11:09:34.479Z,5676.00
2018-02-13T11:10:34.494Z,5688.00
2018-02-13T11:11:37.596Z,5688.00
2018-02-13T11:12:34.558Z,5616.00
2018-02-13T11:13:34.757Z,5588.00
2018-02-13T11:14:34.536Z,5568.00
2018-02-13T11:15:34.484Z,5516.00
2018-02-13T11:16:34.481Z,5468.00
2018-02-13T11:17:36.681Z,5464.00
2018-02-13T11:18:34.530Z,5440.00
2018-02-13T11:19:34.485Z,5476.00
2018-02-13T11:20:34.477Z,5476.00
2018-02-13T11:21:34.478Z,5492.00
2018-02-13T11:22:34.475Z,5492.00
2018-02-13T11:23:34.471Z,5528.00
2018-02-13T11:24:34.472Z,5528.00
2018-02-13T11:25:34.472Z,5472.00
2018-02-13T11:26:34.470Z,5348.00
2018-02-13T11:27:34.466Z,5380.00
2018-02-13T11:28:34.467Z,5384.00
2018-02-13T11:29:34.466Z,5388.00
2018-02-13T11:30:34.461Z,5344.00
2018-02-13T11:31:34.494Z,5264.00
2018-02-13T11:32:34.468Z,5280.00
2018-02-13T11:33:34.461Z,5252.00
2018-02-13T11:34:34.457Z,5192.00
2018-02-13T11:35:34.450Z,5104.00
2018-02-13T11:36:34.449Z,5068.00
2018-02-13T11:37:34.450Z,5072.00
2018-02-13T11:38:34.445Z,5024.00
2018-02-13T11:39:34.606Z,4964.00
2018-02-13T11:40:34.513Z,4936.00
2018-02-13T11:41:36.399Z,4896.00
2018-02-13T11:42:36.418Z,4868.00
2018-02-13T11:43:34.513Z,4924.00
2018-02-13T11:44:37.400Z,4908.00
2018-02-13T11:45:34.618Z,4876.00
2018-02-13T11:46:34.427Z,4820.00
2018-02-13T11:47:34.425Z,4812.00
2018-02-13T11:48:34.427Z,4768.00
2018-02-13T11:49:34.420Z,4772.00
2018-02-13T11:50:34.418Z,4716.00
2018-02-13T11:51:34.433Z,4652.00
2018-02-13T11:52:34.413Z,4580.00
2018-02-13T11:53:34.411Z,4592.00
2018-02-13T11:54:34.404Z,4616.00
2018-02-13T11:55:34.428Z,4696.00
2018-02-13T11:56:36.560Z,4816.00
2018-02-13T11:57:34.399Z,4896.00
2018-02-13T11:58:34.396Z,4868.00
2018-02-13T11:59:34.457Z,4628.00
2018-02-13T12:00:34.845Z,4484.00
2018-02-13T12:04:56.459Z,4380.00
2018-02-13T12:05:56.273Z,4356.00
2018-02-13T12:07:50.703Z,4320.00
2018-02-13T12:08:51.119Z,4300.00
2018-02-13T12:10:44.830Z,4084.00
2018-02-13T12:11:45.064Z,4060.00
2018-02-13T12:12:45.053Z,4056.00
2018-02-13T12:13:44.985Z,4088.00
2018-02-13T12:14:45.047Z,4028.00
2018-02-13T12:15:44.920Z,3964.00
2018-02-13T12:16:44.869Z,3960.00
2018-02-13T12:17:44.938Z,3948.00
2018-02-13T12:18:44.997Z,3936.00
2018-02-13T12:19:55.708Z,3904.00
2018-02-13T12:20:44.810Z,3932.00
2018-02-13T12:21:45.162Z,3912.00
2018-02-13T12:26:57.507Z,3796.00
2018-02-13T12:27:54.170Z,3812.00
2018-02-13T12:29:50.445Z,3768.00
2018-02-13T12:30:50.064Z,3812.00
2018-02-13T12:31:49.446Z,3924.00
2018-02-13T12:32:49.602Z,3916.00
2018-02-13T12:33:49.465Z,3856.00
2018-02-13T12:34:49.395Z,3864.00
2018-02-13T12:35:49.480Z,3888.00
2018-02-13T12:36:49.338Z,3904.00
2018-02-13T12:37:49.298Z,3816.00
2018-02-13T12:38:49.294Z,3596.00
2018-02-13T12:39:49.285Z,3564.00
2018-02-13T12:40:49.291Z,3508.00
2018-02-13T12:41:49.279Z,3440.00
2018-02-13T12:42:49.454Z,3404.00
2018-02-13T12:43:49.267Z,3392.00
2018-02-13T12:44:49.269Z,3420.00
2018-02-13T12:45:49.331Z,3412.00
2018-02-13T12:46:49.256Z,3356.00
2018-02-13T12:47:49.255Z,3420.00
2018-02-13T12:48:49.249Z,3420.00
2018-02-13T12:49:49.242Z,3372.00
2018-02-13T12:50:49.237Z,3324.00
2018-02-13T12:51:49.313Z,3272.00
2018-02-13T12:52:49.265Z,3252.00
2018-02-13T12:53:49.227Z,3256.00
2018-02-13T12:54:49.313Z,3316.00
2018-02-13T12:55:49.217Z,3392.00
2018-02-13T12:56:49.210Z,3376.00
2018-02-13T12:57:49.474Z,3316.00
2018-02-13T12:58:49.303Z,3324.00
2018-02-13T12:59:49.203Z,3344.00
2018-02-13T13:00:49.245Z,3292.00
2018-02-13T13:01:49.259Z,3328.00
2018-02-13T13:02:49.299Z,3336.00
2018-02-13T13:05:12.959Z,3404.00
2018-02-13T13:06:16.466Z,3464.00
2018-02-13T13:07:12.819Z,3540.00
2018-02-13T13:08:14.503Z,3620.00
2018-02-13T13:09:12.684Z,3556.00
2018-02-13T13:10:18.657Z,3448.00
2018-02-13T13:11:14.261Z,3364.00